createdAt,value
2022-08-24T00:02:04.972Z,23.47
2022-08-24T00:04:48.659Z,22.70
2022-08-24T00:07:27.611Z,23.17
2022-08-24T00:09:57.174Z,25.37
2022-08-24T00:12:26.343Z,22.90
2022-08-24T00:14:54.959Z,25.00
2022-08-24T00:17:23.450Z,21.13
2022-08-24T00:19:53.760Z,24.50
2022-08-24T00:22:22.417Z,23.33
2022-08-24T00:24:50.269Z,20.77
2022-08-24T00:27:18.337Z,22.13
2022-08-24T00:29:46.889Z,23.50
2022-08-24T00:32:14.752Z,23.63
2022-08-24T00:34:45.878Z,22.77
2022-08-24T00:37:29.242Z,21.97
2022-08-24T00:40:00.085Z,22.93
2022-08-24T00:42:28.469Z,21.17
2022-08-24T00:44:56.355Z,24.27
2022-08-24T00:47:31.695Z,23.17
2022-08-24T00:50:06.929Z,23.23
2022-08-24T00:52:39.904Z,21.23
2022-08-24T00:55:13.745Z,24.13
2022-08-24T00:57:46.150Z,21.37
2022-08-24T01:00:19.486Z,20.47
2022-08-24T01:02:52.599Z,20.73
2022-08-24T01:05:20.819Z,19.90
2022-08-24T01:07:51.628Z,19.27
2022-08-24T01:10:22.840Z,19.00
2022-08-24T01:13:00.068Z,18.70
2022-08-24T01:15:29.635Z,19.03
2022-08-24T01:18:15.859Z,23.40
2022-08-24T01:21:04.089Z,21.53
2022-08-24T01:23:40.419Z,20.43
2022-08-24T01:26:11.437Z,20.27
2022-08-24T01:28:44.096Z,21.03
2022-08-24T01:31:12.805Z,21.53
2022-08-24T01:33:44.069Z,20.23
2022-08-24T01:36:19.582Z,23.70
2022-08-24T01:38:50.591Z,23.93
2022-08-24T01:41:18.722Z,23.70
2022-08-24T01:43:46.797Z,20.60
2022-08-24T01:46:14.893Z,20.67
2022-08-24T01:48:42.747Z,18.93
2022-08-24T01:51:10.785Z,23.13
2022-08-24T01:53:40.486Z,23.67
2022-08-24T01:56:09.881Z,20.03
2022-08-24T01:58:37.802Z,21.53
2022-08-24T02:01:06.846Z,22.70
2022-08-24T02:03:35.057Z,23.40
2022-08-24T02:06:03.270Z,21.43
2022-08-24T02:08:32.870Z,22.97
2022-08-24T02:11:00.787Z,21.17
2022-08-24T02:13:31.354Z,21.67
2022-08-24T02:15:59.710Z,21.43
2022-08-24T02:18:27.654Z,19.93
2022-08-24T02:21:09.344Z,21.03
2022-08-24T02:23:38.694Z,19.90
2022-08-24T02:26:08.551Z,22.07
2022-08-24T02:28:38.419Z,21.73
2022-08-24T02:31:11.195Z,22.83
2022-08-24T02:33:41.205Z,22.90
2022-08-24T02:36:26.082Z,21.47
2022-08-24T02:38:55.705Z,21.30
2022-08-24T02:41:24.893Z,23.03
2022-08-24T02:43:56.286Z,20.97
2022-08-24T02:46:27.219Z,22.53
2022-08-24T02:48:58.118Z,22.17
2022-08-24T02:51:45.662Z,25.70
2022-08-24T02:54:17.835Z,24.83
2022-08-24T02:56:46.367Z,26.97
2022-08-24T02:59:16.378Z,26.37
2022-08-24T03:01:45.242Z,25.73
2022-08-24T03:10:57.058Z,24.03
2022-08-24T03:13:45.435Z,22.43
2022-08-24T03:16:19.154Z,27.73
2022-08-24T03:19:34.713Z,25.50
2022-08-24T03:21:55.256Z,25.37
2022-08-24T03:24:23.775Z,26.50
2022-08-24T03:26:52.023Z,26.93
2022-08-24T03:29:19.886Z,26.20
2022-08-24T03:31:49.452Z,25.67
2022-08-24T03:34:19.880Z,27.67
2022-08-24T03:36:48.261Z,27.17
2022-08-24T03:39:17.226Z,24.50
2022-08-24T03:41:45.780Z,27.37
2022-08-24T03:44:23.079Z,25.83
2022-08-24T03:46:53.230Z,25.50
2022-08-24T03:49:21.818Z,26.60
2022-08-24T03:51:50.426Z,26.10
2022-08-24T03:54:23.930Z,24.97
2022-08-24T03:56:52.510Z,25.80
2022-08-24T03:59:21.272Z,24.30
2022-08-24T04:01:49.633Z,24.47
2022-08-24T04:04:19.053Z,25.47
2022-08-24T04:06:47.608Z,25.47
2022-08-24T04:09:16.648Z,27.13
2022-08-24T04:11:47.776Z,29.80
2022-08-24T04:14:26.769Z,25.73
2022-08-24T04:16:57.678Z,24.07
2022-08-24T04:19:28.928Z,27.10
2022-08-24T04:22:10.018Z,24.43
2022-08-24T04:24:39.992Z,25.03
2022-08-24T04:27:07.892Z,23.33
2022-08-24T04:29:36.219Z,22.77
2022-08-24T04:32:04.644Z,22.63
2022-08-24T04:34:33.969Z,21.93
2022-08-24T04:37:01.875Z,23.47
2022-08-24T04:39:29.904Z,25.37
2022-08-24T04:42:02.924Z,30.40
2022-08-24T04:44:31.573Z,26.70
2022-08-24T04:46:59.579Z,17.63
2022-08-24T04:49:27.539Z,16.40
2022-08-24T04:52:01.094Z,15.87
2022-08-24T04:54:29.977Z,19.00
2022-08-24T04:57:01.311Z,16.47
2022-08-24T04:59:29.226Z,16.80
2022-08-24T05:01:57.339Z,18.67
2022-08-24T05:04:25.483Z,21.03
2022-08-24T05:06:54.427Z,24.67
2022-08-24T05:09:24.277Z,28.13
2022-08-24T05:11:54.071Z,29.20
2022-08-24T05:14:25.604Z,30.57
2022-08-24T05:17:02.860Z,27.03
2022-08-24T05:19:42.886Z,32.87
2022-08-24T05:22:10.930Z,46.50
2022-08-24T05:24:40.203Z,46.03
2022-08-24T05:27:08.116Z,44.37
2022-08-24T05:29:37.405Z,45.27
2022-08-24T05:32:06.850Z,46.63
2022-08-24T05:34:34.767Z,48.45
2022-08-24T05:37:05.087Z,50.40
2022-08-24T05:39:33.206Z,58.13
2022-08-24T05:42:02.527Z,86.38
2022-08-24T05:44:31.702Z,96.53
2022-08-24T05:47:01.299Z,98.75
2022-08-24T05:49:29.925Z,87.13
2022-08-24T05:51:58.202Z,86.47
2022-08-24T05:54:26.954Z,88.88
2022-08-24T05:56:57.339Z,105.25
2022-08-24T05:59:26.903Z,118.47
2022-08-24T06:01:54.720Z,153.90
2022-08-24T06:04:22.687Z,157.25
2022-08-24T06:06:52.909Z,154.00
2022-08-24T06:09:21.137Z,159.25
2022-08-24T06:11:49.288Z,200.73
2022-08-24T06:14:21.904Z,163.40
2022-08-24T06:16:54.799Z,168.40
2022-08-24T06:19:27.671Z,184.13
2022-08-24T06:22:00.243Z,192.68
2022-08-24T06:24:42.980Z,195.20
2022-08-24T06:27:22.847Z,211.27
2022-08-24T06:29:53.160Z,232.43
2022-08-24T06:32:23.185Z,270.02
2022-08-24T06:34:51.561Z,268.30
2022-08-24T06:37:20.419Z,275.20
2022-08-24T06:39:48.808Z,273.50
2022-08-24T06:42:24.856Z,277.70
2022-08-24T06:44:54.315Z,275.42
2022-08-24T06:47:23.731Z,305.30
2022-08-24T06:49:51.868Z,270.95
2022-08-24T06:52:19.839Z,235.20
2022-08-24T06:54:47.645Z,217.95
2022-08-24T06:57:15.910Z,227.45
2022-08-24T06:59:50.886Z,242.70
2022-08-24T07:02:27.270Z,235.05
2022-08-24T07:05:00.061Z,244.40
2022-08-24T07:07:27.865Z,266.23
2022-08-24T07:09:55.892Z,232.50
2022-08-24T07:12:23.984Z,214.55
2022-08-24T07:14:51.979Z,202.43
2022-08-24T07:17:27.023Z,208.23
2022-08-24T07:19:55.044Z,208.80
2022-08-24T07:22:24.489Z,218.18
2022-08-24T07:24:52.261Z,204.05
2022-08-24T07:27:21.758Z,186.82
2022-08-24T07:30:04.625Z,174.73
2022-08-24T07:32:37.335Z,192.05
2022-08-24T07:35:05.909Z,206.80
2022-08-24T07:37:41.274Z,209.98
2022-08-24T07:40:09.970Z,211.20
2022-08-24T07:42:39.936Z,211.65
2022-08-24T07:45:09.312Z,212.15
2022-08-24T07:47:40.513Z,217.13
2022-08-24T07:50:10.619Z,202.82
2022-08-24T07:52:40.107Z,210.90
2022-08-24T07:55:12.098Z,204.70
2022-08-24T07:57:40.905Z,198.55
2022-08-24T08:00:12.572Z,202.63
2022-08-24T08:02:43.019Z,233.55
2022-08-24T08:05:11.727Z,246.70
2022-08-24T08:07:40.845Z,248.23
2022-08-24T08:10:11.273Z,246.75
2022-08-24T08:12:38.953Z,230.05
2022-08-24T08:15:09.692Z,239.45
2022-08-24T08:17:38.102Z,266.23
2022-08-24T08:20:08.798Z,249.25
2022-08-24T08:22:54.287Z,235.98
2022-08-24T08:25:23.410Z,215.70
2022-08-24T08:27:51.481Z,237.13
2022-08-24T08:30:20.444Z,260.95
2022-08-24T08:32:48.144Z,246.63
2022-08-24T08:35:16.007Z,244.40
2022-08-24T08:37:43.824Z,245.73
2022-08-24T08:40:37.941Z,240.15
2022-08-24T08:44:01.696Z,237.82
2022-08-24T08:46:48.150Z,241.57
2022-08-24T08:49:42.021Z,234.65
2022-08-24T08:52:27.336Z,238.75
2022-08-24T08:55:06.839Z,190.70
2022-08-24T08:58:11.427Z,198.05
2022-08-24T09:00:55.962Z,207.98
2022-08-24T09:03:45.908Z,218.73
2022-08-24T09:06:46.004Z,207.07
2022-08-24T09:09:46.376Z,232.32
2022-08-24T09:12:25.511Z,230.30
2022-08-24T09:15:16.725Z,252.80
2022-08-24T09:18:04.877Z,202.93
2022-08-24T09:21:09.333Z,193.15
2022-08-24T09:23:49.612Z,187.57
2022-08-24T09:26:27.263Z,196.32
2022-08-24T09:29:10.128Z,193.45
2022-08-24T09:31:52.211Z,182.75
2022-08-24T09:34:34.800Z,175.55
2022-08-24T09:37:19.316Z,154.88
2022-08-24T09:40:02.920Z,172.80
2022-08-24T09:43:05.465Z,184.50
2022-08-24T09:46:07.640Z,189.43
2022-08-24T09:48:57.218Z,190.18
2022-08-24T09:51:49.966Z,238.65
2022-08-24T09:55:05.792Z,228.30
2022-08-24T09:58:04.501Z,245.05
2022-08-24T10:00:40.024Z,232.35
2022-08-24T10:03:36.222Z,230.25
2022-08-24T10:06:18.485Z,204.90
2022-08-24T10:09:02.358Z,202.98
2022-08-24T10:11:48.022Z,221.95
2022-08-24T10:14:44.246Z,206.07
2022-08-24T10:17:22.840Z,187.52
2022-08-24T10:20:06.322Z,189.85
2022-08-24T10:22:58.410Z,180.35
2022-08-24T10:25:36.471Z,214.48
2022-08-24T10:28:29.776Z,228.85
2022-08-24T10:31:05.651Z,230.00
2022-08-24T10:33:45.845Z,248.35
2022-08-24T10:36:27.883Z,253.82
2022-08-24T10:39:28.275Z,271.95
2022-08-24T10:42:58.714Z,301.95
2022-08-24T10:46:03.335Z,309.27
2022-08-24T10:48:58.600Z,269.33
2022-08-24T10:51:42.452Z,235.50
2022-08-24T10:54:13.274Z,212.13
2022-08-24T10:56:44.007Z,207.93
2022-08-24T10:59:23.901Z,198.20
2022-08-24T11:02:12.412Z,186.88
2022-08-24T11:04:41.608Z,192.32
2022-08-24T11:07:17.544Z,193.55
2022-08-24T11:09:48.868Z,177.13
2022-08-24T11:12:30.063Z,175.15
2022-08-24T11:15:01.106Z,187.05
2022-08-24T11:17:33.174Z,167.07
2022-08-24T11:20:01.293Z,190.70
2022-08-24T11:22:34.227Z,199.52
2022-08-24T11:25:08.785Z,200.88
2022-08-24T11:27:40.077Z,188.13
2022-08-24T11:30:13.912Z,184.45
2022-08-24T11:33:13.806Z,184.27
2022-08-24T11:35:41.888Z,225.05
2022-08-24T11:38:17.652Z,260.33
2022-08-24T11:40:58.386Z,249.25
2022-08-24T11:43:50.948Z,229.38
2022-08-24T11:46:29.887Z,197.60
2022-08-24T11:49:05.996Z,166.45
2022-08-24T11:51:44.108Z,156.20
2022-08-24T11:54:24.736Z,143.38
2022-08-24T11:57:08.405Z,158.68
2022-08-24T11:59:45.498Z,162.45
2022-08-24T12:02:19.816Z,162.02
2022-08-24T12:04:55.988Z,154.85
2022-08-24T12:07:36.464Z,154.90
2022-08-24T12:10:17.782Z,156.32
2022-08-24T12:12:53.166Z,154.85
2022-08-24T12:15:28.809Z,168.25
2022-08-24T12:18:05.136Z,165.15
2022-08-24T12:20:38.493Z,164.10
2022-08-24T12:23:12.993Z,159.05
2022-08-24T12:25:58.696Z,149.30
2022-08-24T12:28:32.065Z,154.90
2022-08-24T12:31:07.907Z,150.82
2022-08-24T12:33:39.465Z,155.68
2022-08-24T12:36:19.368Z,161.38
2022-08-24T12:38:52.043Z,150.13
2022-08-24T12:41:25.552Z,138.95
2022-08-24T12:43:56.904Z,140.30
2022-08-24T12:46:30.395Z,141.48
2022-08-24T12:49:03.834Z,145.73
2022-08-24T12:51:49.892Z,145.93
2022-08-24T12:54:36.857Z,142.35
2022-08-24T12:57:16.674Z,147.02
2022-08-24T12:59:49.528Z,138.85
2022-08-24T13:02:35.098Z,160.52
2022-08-24T13:05:15.301Z,146.25
2022-08-24T13:07:48.763Z,139.82
2022-08-24T13:10:39.056Z,140.15
2022-08-24T13:13:15.971Z,131.55
2022-08-24T13:16:02.964Z,129.13
2022-08-24T13:18:54.130Z,129.90
2022-08-24T13:21:42.942Z,123.75
2022-08-24T13:24:51.408Z,128.88
2022-08-24T13:28:05.062Z,138.60
2022-08-24T13:31:14.204Z,142.00
2022-08-24T13:33:46.590Z,178.07
2022-08-24T13:36:56.437Z,145.90
2022-08-24T13:39:42.433Z,133.45
2022-08-24T13:42:24.826Z,131.32
2022-08-24T13:45:21.745Z,125.13
2022-08-24T13:48:14.572Z,122.68
2022-08-24T13:51:02.588Z,123.80
2022-08-24T13:53:53.585Z,122.28
2022-08-24T13:56:44.685Z,122.82
2022-08-24T13:59:18.446Z,122.88
2022-08-24T14:02:04.011Z,130.23
2022-08-24T14:04:44.767Z,128.02
2022-08-24T14:07:21.460Z,128.80
2022-08-24T14:10:10.204Z,136.48
2022-08-24T14:13:01.562Z,130.77
2022-08-24T14:15:47.780Z,142.18
2022-08-24T14:18:29.559Z,130.27
2022-08-24T14:21:10.032Z,139.00
2022-08-24T14:23:59.336Z,129.02
2022-08-24T14:27:08.265Z,139.93
2022-08-24T14:29:42.195Z,133.88
2022-08-24T14:32:41.537Z,133.45
2022-08-24T14:35:32.095Z,136.43
2022-08-24T14:38:12.701Z,128.68
2022-08-24T14:40:56.668Z,134.27
2022-08-24T14:43:31.918Z,130.63
2022-08-24T14:46:09.777Z,127.43
2022-08-24T14:48:46.529Z,131.93
2022-08-24T14:51:31.946Z,133.68
2022-08-24T14:54:04.038Z,133.68
2022-08-24T14:56:51.927Z,132.57
2022-08-24T14:59:34.557Z,136.73
2022-08-24T15:02:37.404Z,129.05
2022-08-24T15:05:17.961Z,137.65
2022-08-24T15:07:55.502Z,127.60
2022-08-24T15:10:26.798Z,136.98
2022-08-24T15:13:07.432Z,142.50
2022-08-24T15:15:39.637Z,136.50
2022-08-24T15:18:24.758Z,137.20
2022-08-24T15:21:07.658Z,147.85
2022-08-24T15:24:08.025Z,140.10
2022-08-24T15:26:56.549Z,129.70
2022-08-24T15:29:30.746Z,143.75
2022-08-24T15:32:03.860Z,138.98
2022-08-24T15:34:39.405Z,138.30
2022-08-24T15:37:08.257Z,157.30
2022-08-24T15:39:36.175Z,172.02
2022-08-24T15:42:11.832Z,149.05
2022-08-24T15:44:43.649Z,149.05
2022-08-24T15:47:20.811Z,151.48
2022-08-24T15:49:53.228Z,143.98
2022-08-24T15:52:49.711Z,139.38
2022-08-24T15:55:33.555Z,136.60
2022-08-24T15:58:16.999Z,134.23
2022-08-24T16:01:04.564Z,122.45
2022-08-24T16:03:47.777Z,140.20
2022-08-24T16:06:26.629Z,117.10
2022-08-24T16:09:04.058Z,120.20
2022-08-24T16:11:38.443Z,126.18
2022-08-24T16:14:15.235Z,127.40
2022-08-24T16:16:47.116Z,125.18
2022-08-24T16:19:27.112Z,129.80
2022-08-24T16:22:01.107Z,114.57
2022-08-24T16:24:33.066Z,113.05
2022-08-24T16:27:05.060Z,109.55
2022-08-24T16:29:53.299Z,114.60
2022-08-24T16:32:29.947Z,103.55
2022-08-24T16:35:18.278Z,103.35
2022-08-24T16:37:46.771Z,102.13
2022-08-24T16:40:16.891Z,105.78
2022-08-24T16:42:46.168Z,102.53
2022-08-24T16:45:18.478Z,97.60
2022-08-24T16:47:48.738Z,117.63
2022-08-24T16:50:19.531Z,109.47
2022-08-24T16:52:47.774Z,111.45
2022-08-24T16:55:18.197Z,106.93
2022-08-24T16:57:50.403Z,105.43
2022-08-24T17:00:22.144Z,104.18
2022-08-24T17:02:51.398Z,105.53
2022-08-24T17:05:20.488Z,100.57
2022-08-24T17:07:48.870Z,105.15
2022-08-24T17:10:20.099Z,103.18
2022-08-24T17:12:50.012Z,106.68
2022-08-24T17:15:21.718Z,100.03
2022-08-24T17:17:57.602Z,99.82
2022-08-24T17:20:25.984Z,98.53
2022-08-24T17:22:53.833Z,92.85
2022-08-24T17:25:21.725Z,95.72
2022-08-24T17:27:49.796Z,95.47
2022-08-24T17:30:21.076Z,95.28
2022-08-24T17:32:48.885Z,84.68
2022-08-24T17:35:18.529Z,80.65
2022-08-24T17:37:46.710Z,83.90
2022-08-24T17:40:16.647Z,82.47
2022-08-24T17:42:51.161Z,79.03
2022-08-24T17:45:20.465Z,79.72
2022-08-24T17:47:48.392Z,81.30
2022-08-24T17:50:19.875Z,78.85
2022-08-24T17:52:48.651Z,79.60
2022-08-24T17:55:24.986Z,78.18
2022-08-24T17:57:53.228Z,76.65
2022-08-24T18:00:20.971Z,80.43
2022-08-24T18:02:48.740Z,77.25
2022-08-24T18:05:18.444Z,82.63
2022-08-24T18:07:54.170Z,82.65
2022-08-24T18:10:24.941Z,89.63
2022-08-24T18:12:53.232Z,96.75
2022-08-24T18:15:21.596Z,102.43
2022-08-24T18:17:59.507Z,102.65
2022-08-24T18:20:34.007Z,108.75
2022-08-24T18:23:01.851Z,105.32
2022-08-24T18:25:30.952Z,97.80
2022-08-24T18:27:59.575Z,96.07
2022-08-24T18:30:30.770Z,85.95
2022-08-24T18:32:59.698Z,82.20
2022-08-24T18:35:30.744Z,76.93
2022-08-24T18:37:58.575Z,73.50
2022-08-24T18:40:33.089Z,71.85
2022-08-24T18:43:04.029Z,67.70
2022-08-24T18:45:34.223Z,73.90
2022-08-24T18:48:02.245Z,65.15
2022-08-24T18:50:32.835Z,63.33
2022-08-24T18:53:01.422Z,72.82
2022-08-24T18:55:29.471Z,71.50
2022-08-24T18:57:58.130Z,67.30
2022-08-24T19:00:26.242Z,74.38
2022-08-24T19:02:54.509Z,73.70
2022-08-24T19:05:24.901Z,82.13
2022-08-24T19:07:54.918Z,78.72
2022-08-24T19:10:25.405Z,83.40
2022-08-24T19:12:57.594Z,79.30
2022-08-24T19:15:32.303Z,80.53
2022-08-24T19:18:09.790Z,74.35
2022-08-24T19:20:40.763Z,73.93
2022-08-24T19:23:14.835Z,70.35
2022-08-24T19:25:45.865Z,66.65
2022-08-24T19:28:14.194Z,69.60
2022-08-24T19:30:44.561Z,68.82
2022-08-24T19:33:14.452Z,65.30
2022-08-24T20:07:04.910Z,44.23
2022-08-24T20:09:37.022Z,40.28
2022-08-24T20:12:05.989Z,41.13
2022-08-24T20:14:37.317Z,44.38
2022-08-24T20:17:07.142Z,42.97
2022-08-24T20:19:39.843Z,40.60
2022-08-24T20:22:13.483Z,38.83
2022-08-24T20:24:43.146Z,37.93
2022-08-24T20:27:13.266Z,35.60
2022-08-24T20:29:41.605Z,34.50
2022-08-24T20:32:10.433Z,32.07
2022-08-24T20:34:40.983Z,31.63
2022-08-24T20:37:12.127Z,32.73
2022-08-24T20:39:40.014Z,30.70
2022-08-24T20:42:13.934Z,27.57
2022-08-24T20:44:44.825Z,27.63
2022-08-24T20:47:14.607Z,27.30
2022-08-24T20:49:42.970Z,25.30
2022-08-24T20:52:21.248Z,24.73
2022-08-24T20:54:54.653Z,24.40
2022-08-24T20:57:23.525Z,23.97
2022-08-24T20:59:51.908Z,23.87
2022-08-24T21:02:20.023Z,22.77
2022-08-24T21:04:48.441Z,22.03
2022-08-24T21:07:17.639Z,22.30
2022-08-24T21:09:47.814Z,21.03
2022-08-24T21:12:16.504Z,22.63
2022-08-24T21:14:44.823Z,24.90
2022-08-24T21:17:12.828Z,23.33
2022-08-24T21:19:41.331Z,22.57
2022-08-24T21:22:24.147Z,23.73
2022-08-24T21:25:37.365Z,21.63
2022-08-24T21:28:27.268Z,23.43
2022-08-24T21:31:09.039Z,21.97
2022-08-24T21:33:57.003Z,23.93
2022-08-24T21:36:31.818Z,28.90
2022-08-24T21:39:00.438Z,33.43
2022-08-24T21:41:30.210Z,30.27
2022-08-24T21:44:00.232Z,30.73
2022-08-24T21:46:32.936Z,33.77
2022-08-24T21:49:01.114Z,29.17
2022-08-24T21:51:30.111Z,30.47
2022-08-24T21:53:59.743Z,30.93
2022-08-24T21:56:33.371Z,29.90
2022-08-24T21:59:02.882Z,30.47
2022-08-24T22:01:31.421Z,28.90
2022-08-24T22:04:00.818Z,28.13
2022-08-24T22:06:31.751Z,28.97
2022-08-24T22:09:01.004Z,30.10
2022-08-24T22:11:54.546Z,27.30
2022-08-24T22:14:25.967Z,30.40
2022-08-24T22:16:55.147Z,30.77
2022-08-24T22:19:26.423Z,29.37
2022-08-24T22:21:54.303Z,29.07
2022-08-24T22:24:23.122Z,31.30
2022-08-24T22:26:52.941Z,28.97
2022-08-24T22:29:22.715Z,28.17
2022-08-24T22:31:52.792Z,27.47
2022-08-24T22:34:21.531Z,29.27
2022-08-24T22:36:50.229Z,28.90
2022-08-24T22:39:21.834Z,29.53
2022-08-24T22:41:49.796Z,27.87
2022-08-24T22:44:22.243Z,27.50
2022-08-24T22:46:52.536Z,29.90
2022-08-24T22:49:23.351Z,27.07
2022-08-24T22:51:51.562Z,29.40
2022-08-24T22:54:20.852Z,30.13
2022-08-24T22:56:52.312Z,28.27
2022-08-24T22:59:24.427Z,27.03
2022-08-24T23:02:01.346Z,30.37
2022-08-24T23:04:32.217Z,29.97
2022-08-24T23:07:06.564Z,29.87
2022-08-24T23:09:44.015Z,28.37
2022-08-24T23:12:15.484Z,31.70
2022-08-24T23:14:45.219Z,29.63
2022-08-24T23:17:13.515Z,28.60
2022-08-24T23:19:58.806Z,28.27
2022-08-24T23:22:26.871Z,28.00
2022-08-24T23:24:54.992Z,28.27
2022-08-24T23:27:23.130Z,28.47
2022-08-24T23:29:52.893Z,27.33
2022-08-24T23:32:20.969Z,25.87
2022-08-24T23:34:49.773Z,26.27
2022-08-24T23:37:18.963Z,24.97
2022-08-24T23:39:48.881Z,23.83
2022-08-24T23:42:16.929Z,22.33
2022-08-24T23:44:44.951Z,24.10
2022-08-24T23:47:14.888Z,23.37
2022-08-24T23:49:49.423Z,22.87
2022-08-24T23:52:28.223Z,21.60
2022-08-24T23:55:20.054Z,22.97
2022-08-24T23:57:44.837Z,23.50
